Time;durP1;ratioP1;P1;durP2;ratioP2;P2;SDS_P1;SDS_P2;PMS_P1;PMS_P2;Temp;Humidity;BMP_temperature;BMP_pressure;BME280_temperature;BME280_humidity;BME280_pressure;Samples;Min_cycle;Max_cycle;Signal;HPM_P1;HPM_P2
2022/01/20 00:02:17;;;;;;;15.32;10.75;;;5.60;72.80;;;4.59;57.12;94966.16;5033656;28;20225;-86
2022/01/20 00:04:52;;;;;;;14.75;10.68;;;5.60;72.80;;;4.54;57.12;94941.59;5005161;28;20594;-86
2022/01/20 00:25:55;;;;;;;14.60;10.55;;;5.50;72.70;;;4.55;57.29;94964.81;5020212;28;20193;-86
2022/01/20 00:26:40;;;;;;;15.10;9.98;;;5.50;72.70;;;4.57;57.13;94962.88;5015172;28;20547;-86
2022/01/20 00:29:13;;;;;;;16.02;10.68;;;5.60;72.80;;;4.59;57.24;94973.94;4997122;28;20246;-86
2022/01/20 00:32:03;;;;;;;16.98;10.43;;;5.50;72.70;;;4.58;57.40;94974.13;5017471;28;20212;-85
2022/01/20 00:35:05;;;;;;;13.32;9.25;;;5.60;72.80;;;4.63;57.14;94987.44;5019043;28;20240;-86
2022/01/20 00:37:20;;;;;;;13.55;9.93;;;5.50;72.70;;;4.61;56.85;94976.38;5034875;28;20194;-86
2022/01/20 00:39:48;;;;;;;13.63;9.90;;;5.50;72.70;;;4.63;57.15;94966.66;5049122;28;20212;-85
2022/01/20 00:42:17;;;;;;;12.32;9.15;;;5.50;72.70;;;4.61;57.02;94995.41;5014499;28;20270;-86
2022/01/20 00:44:46;;;;;;;13.65;9.77;;;5.50;72.70;;;4.58;57.02;94980.09;4983046;28;20664;-86
2022/01/20 00:47:15;;;;;;;13.23;9.00;;;5.60;72.80;;;4.60;56.75;94957.41;5005008;28;20197;-86
2022/01/20 00:49:45;;;;;;;12.20;8.55;;;5.50;72.70;;;4.61;57.00;94960.81;5021614;28;20269;-85
2022/01/20 00:52:13;;;;;;;11.77;8.60;;;5.50;72.70;;;4.62;57.12;94952.84;4991643;28;20193;-85
2022/01/20 00:54:41;;;;;;;13.13;9.00;;;5.50;72.70;;;4.61;57.03;94959.03;5013457;28;20327;-86
2022/01/20 00:57:08;;;;;;;12.38;9.13;;;5.50;72.70;;;4.65;57.03;94962.09;5014043;28;20205;-87
2022/01/20 00:59:35;;;;;;;11.95;8.48;;;5.60;72.80;;;4.57;57.06;94956.88;5030582;28;20745;-86
2022/01/20 01:02:08;;;;;;;12.65;9.07;;;5.60;72.80;;;4.61;57.14;94956.44;5013873;28;20682;-87
2022/01/20 01:04:37;;;;;;;11.73;8.15;;;5.50;72.70;;;4.60;57.06;94948.78;5010828;28;20223;-86
2022/01/20 01:09:44;;;;;;;13.65;8.88;;;5.60;72.80;;;4.65;56.94;94942.16;5018284;28;20225;-86
2022/01/20 01:12:17;;;;;;;11.80;8.50;;;5.60;72.80;;;4.64;56.92;94942.31;5014328;28;20189;-86
2022/01/20 01:14:50;;;;;;;12.02;8.25;;;5.60;72.80;;;4.58;56.85;94945.53;4998089;28;20662;-86
2022/01/20 01:22:31;;;;;;;9.93;7.50;;;5.50;72.70;;;4.57;56.70;94946.50;5018430;28;20199;-87
2022/01/20 01:25:00;;;;;;;10.93;8.25;;;5.60;72.70;;;4.55;56.88;94945.84;4996297;28;20205;-86
2022/01/20 01:27:30;;;;;;;9.82;7.40;;;5.50;72.70;;;4.58;57.07;94948.13;5046654;28;20199;-86
2022/01/20 01:32:37;;;;;;;9.23;6.95;;;5.50;72.70;;;4.62;57.27;94952.84;5016242;28;20201;-85
2022/01/20 01:35:08;;;;;;;9.98;7.15;;;5.50;73.60;;;4.57;57.18;94952.50;5018360;28;20220;-87
2022/01/20 01:40:11;;;;;;;11.77;8.13;;;5.50;72.70;;;4.57;56.93;94949.91;5030509;28;20259;-87
2022/01/20 01:42:45;;;;;;;10.55;7.60;;;5.50;72.70;;;4.62;56.75;94952.84;5001534;28;20189;-87
2022/01/20 01:45:34;;;;;;;12.02;8.00;;;5.60;72.80;;;4.55;56.75;94935.44;5016610;28;20224;-87
2022/01/20 01:48:07;;;;;;;9.65;7.53;;;5.50;72.70;;;4.60;57.28;94941.81;5032490;28;20197;-87
2022/01/20 01:50:36;;;;;;;12.02;8.60;;;5.50;72.70;;;4.61;57.31;94935.66;5016060;28;20250;-86
2022/01/20 01:53:06;;;;;;;11.00;7.90;;;5.60;72.80;;;4.62;57.07;94918.28;5000696;28;20200;-86
2022/01/20 01:55:36;;;;;;;12.32;8.13;;;5.60;72.80;;;4.58;57.12;94932.56;5000192;28;20251;-86
2022/01/20 01:58:05;;;;;;;12.38;8.73;;;5.50;72.70;;;4.59;57.15;94934.16;5015643;28;20279;-86
2022/01/20 02:00:35;;;;;;;12.77;8.40;;;5.60;72.80;;;4.59;57.18;94940.19;5016356;28;20225;-87
2022/01/20 02:03:04;;;;;;;12.30;8.43;;;5.50;72.70;;;4.59;57.13;94927.19;5015938;28;20207;-87
2022/01/20 02:06:08;;;;;;;13.50;9.25;;;5.50;72.70;;;4.59;57.28;94936.75;5032544;28;20745;-86
2022/01/20 02:08:50;;;;;;;11.55;8.73;;;5.50;72.70;;;4.57;57.19;94923.13;5032476;28;20196;-87
2022/01/20 02:19:49;;;;;;;11.30;8.23;;;5.50;72.70;;;4.56;57.00;94918.88;5035331;28;20283;-87
2022/01/20 02:22:40;;;;;;;11.02;7.82;;;5.50;72.70;;;4.55;57.43;94914.66;5019265;28;20193;-86
2022/01/20 02:25:23;;;;;;;13.45;8.25;;;5.50;72.70;;;4.53;57.19;94916.59;5032448;28;20694;-86
2022/01/20 02:27:52;;;;;;;10.90;7.50;;;5.50;72.70;;;4.49;57.53;94911.72;5032115;28;20200;-86
2022/01/20 02:30:25;;;;;;;10.15;7.88;;;5.40;72.70;;;4.57;57.48;94925.72;5015771;28;20227;-86
2022/01/20 02:32:56;;;;;;;13.13;8.25;;;5.50;72.70;;;4.57;57.13;94918.72;4998888;28;20658;-86
2022/01/20 02:35:27;;;;;;;11.23;8.48;;;5.50;72.70;;;4.56;57.18;94924.88;4999143;28;20225;-85
2022/01/20 02:38:23;;;;;;;11.65;8.02;;;5.50;72.70;;;4.55;57.33;94914.66;5028284;28;20221;-86
2022/01/20 02:46:08;;;;;;;10.73;7.90;;;5.50;72.70;;;4.60;57.60;94910.63;5017496;28;20209;-87
2022/01/20 02:48:37;;;;;;;11.52;7.82;;;5.60;72.80;;;4.62;57.34;94913.88;5016001;28;20606;-86
2022/01/20 02:51:04;;;;;;;11.25;7.82;;;5.60;72.80;;;4.63;57.33;94915.50;4998836;28;20239;-86
2022/01/20 02:53:32;;;;;;;12.88;8.70;;;5.60;72.80;;;4.67;57.43;94910.03;4996433;28;20300;-86
2022/01/20 02:55:59;;;;;;;10.75;8.15;;;5.60;72.80;;;4.68;57.92;94909.06;5014698;28;20235;-86
2022/01/20 02:58:27;;;;;;;11.15;7.65;;;5.60;72.80;;;4.67;57.64;94908.22;5015316;28;20197;-86
2022/01/20 03:00:55;;;;;;;11.95;8.73;;;5.60;72.80;;;4.70;57.70;94915.72;5015574;28;20216;-85
2022/01/20 03:03:24;;;;;;;11.90;8.88;;;5.60;72.80;;;4.70;57.52;94899.31;5028016;28;20213;-86
2022/01/20 03:05:52;;;;;;;11.68;8.80;;;5.60;72.80;;;4.68;57.59;94917.66;5012516;28;20654;-86
2022/01/20 03:08:19;;;;;;;14.65;9.15;;;5.60;72.80;;;4.67;57.83;94905.63;5012428;28;20312;-86
2022/01/20 03:10:47;;;;;;;12.77;9.25;;;5.60;72.80;;;4.65;57.33;94897.16;4979583;28;20600;-87
2022/01/20 03:13:14;;;;;;;11.68;8.02;;;5.60;72.80;;;4.68;57.83;94898.66;5016175;28;20205;-86
2022/01/20 03:15:42;;;;;;;11.90;8.50;;;5.60;72.80;;;4.63;57.73;94904.31;5031074;28;20224;-86
2022/01/20 03:18:10;;;;;;;12.48;9.05;;;5.60;72.80;;;4.64;58.57;94901.56;5030915;28;20197;-85
2022/01/20 03:20:38;;;;;;;14.63;8.80;;;5.60;73.00;;;4.62;58.98;94900.88;5031091;28;20248;-86
2022/01/20 03:23:05;;;;;;;10.30;7.68;;;5.60;73.30;;;4.58;58.92;94896.97;5014958;28;20281;-86
2022/01/20 03:25:33;;;;;;;11.23;8.30;;;5.60;73.30;;;4.56;58.85;94896.31;5040068;28;20240;-86
2022/01/20 03:28:01;;;;;;;10.00;7.43;;;5.60;74.20;;;4.52;58.52;94887.22;5032026;28;20245;-87
2022/01/20 03:30:29;;;;;;;9.18;6.95;;;5.50;73.20;;;4.47;58.57;94881.69;5048221;28;20242;-86
2022/01/20 03:32:57;;;;;;;10.60;6.78;;;5.50;73.20;;;4.51;58.66;94900.38;5031417;28;20583;-86
2022/01/20 03:35:25;;;;;;;10.98;7.40;;;5.50;73.10;;;4.50;58.30;94896.94;4999205;28;20227;-86
2022/01/20 03:38:24;;;;;;;8.13;6.40;;;5.50;73.00;;;4.52;57.99;94886.38;5019973;28;20197;-86
2022/01/20 03:40:54;;;;;;;8.13;6.32;;;5.50;72.80;;;4.51;58.51;94885.59;5031977;28;20324;-86
2022/01/20 03:43:21;;;;;;;10.23;6.40;;;5.50;73.00;;;4.51;58.39;94895.97;5015658;28;20196;-86
2022/01/20 03:45:51;;;;;;;8.88;6.10;;;5.40;73.10;;;4.46;59.06;94877.44;5015777;28;20229;-87
2022/01/20 03:48:19;;;;;;;7.90;5.82;;;5.50;73.30;;;4.47;59.54;94898.06;4983837;28;20292;-86
2022/01/20 03:50:59;;;;;;;7.75;5.88;;;5.40;73.80;;;4.42;60.00;94892.53;5015510;28;20264;-85
2022/01/20 03:53:36;;;;;;;9.02;5.72;;;5.40;74.00;;;4.29;61.00;94894.72;4999978;28;20197;-86
2022/01/20 03:56:05;;;;;;;7.07;5.65;;;5.40;74.40;;;4.22;60.85;94876.31;5015890;28;20233;-85
2022/01/20 03:58:51;;;;;;;7.22;5.22;;;5.30;74.40;;;4.17;61.60;94883.78;4988071;28;20216;-85
2022/01/20 04:01:19;;;;;;;7.32;5.25;;;5.30;74.70;;;4.08;61.79;94879.50;5031254;28;20193;-85
2022/01/20 04:04:04;;;;;;;9.20;5.68;;;5.20;74.70;;;4.03;62.00;94890.34;4997550;28;20282;-85
2022/01/20 04:06:41;;;;;;;8.57;6.03;;;5.10;74.90;;;3.94;62.97;94893.84;5031430;28;20254;-84
2022/01/20 04:09:09;;;;;;;6.30;4.97;;;5.10;75.30;;;3.87;62.72;94896.22;4982879;28;20688;-85
2022/01/20 04:11:36;;;;;;;6.68;5.25;;;5.00;75.40;;;3.83;62.97;94897.47;5015207;28;20194;-86
2022/01/20 04:14:04;;;;;;;7.95;5.00;;;4.90;75.50;;;3.75;63.42;94882.66;5014967;28;20284;-85
2022/01/20 04:17:01;;;;;;;7.05;5.18;;;4.90;75.70;;;3.74;63.65;94913.97;4982415;28;20229;-85
2022/01/20 04:19:32;;;;;;;6.13;4.82;;;4.80;76.00;;;3.67;63.86;94875.66;5014995;28;20221;-85
2022/01/20 04:22:01;;;;;;;5.78;4.70;;;4.80;76.20;;;3.66;63.96;94876.63;4987642;28;20577;-85
2022/01/20 04:24:30;;;;;;;6.78;4.78;;;4.70;76.20;;;3.59;64.47;94861.78;5002048;28;20587;-84
2022/01/20 04:26:58;;;;;;;6.50;4.85;;;4.70;76.50;;;3.65;63.93;94866.38;5005196;28;20205;-84
2022/01/20 04:29:25;;;;;;;5.50;4.28;;;4.70;76.30;;;3.55;64.07;94871.63;5015556;28;20232;-85
2022/01/20 04:31:53;;;;;;;5.25;4.15;;;4.60;76.40;;;3.63;64.20;94863.13;5038138;28;20254;-84
2022/01/20 04:34:20;;;;;;;6.65;4.07;;;4.60;76.50;;;3.64;64.10;94872.53;5017189;28;20235;-84
2022/01/20 04:36:52;;;;;;;5.88;4.25;;;4.60;76.50;;;3.56;63.94;94865.50;5026949;28;20217;-85
2022/01/20 04:39:24;;;;;;;4.57;3.80;;;4.60;76.60;;;3.64;64.12;94872.53;5015650;28;20221;-85
2022/01/20 04:41:53;;;;;;;4.93;3.67;;;4.60;76.60;;;3.66;64.27;94878.38;5018768;28;20219;-84
2022/01/20 04:47:19;;;;;;;4.50;3.63;;;4.60;76.70;;;3.65;64.05;94868.97;5034035;28;20216;-84
2022/01/20 04:58:06;;;;;;;4.53;3.30;;;4.60;76.80;;;3.68;64.32;94859.09;5017177;28;20236;-85
2022/01/20 05:00:35;;;;;;;4.45;3.08;;;4.60;76.80;;;3.71;64.38;94854.59;5024984;28;20821;-85
2022/01/20 05:03:21;;;;;;;3.55;2.85;;;4.60;77.60;;;3.65;64.17;94835.25;5014380;28;20200;-86
2022/01/20 05:05:49;;;;;;;3.85;3.03;;;4.60;76.90;;;3.68;64.87;94869.47;5032768;28;20213;-85
2022/01/20 05:08:22;;;;;;;4.05;2.92;;;4.60;77.10;;;3.70;65.16;94835.63;5018529;28;20258;-85
2022/01/20 05:10:55;;;;;;;3.10;2.80;;;4.60;77.20;;;3.73;64.20;94839.69;5018511;28;20231;-85
2022/01/20 05:13:24;;;;;;;3.40;2.88;;;4.60;77.00;;;3.75;64.49;94845.53;5017657;28;20243;-85
2022/01/20 05:15:52;;;;;;;3.20;2.72;;;4.70;77.20;;;3.73;64.71;94840.50;5001798;28;20766;-85
2022/01/20 05:18:20;;;;;;;3.85;3.40;;;4.70;77.40;;;3.75;64.85;94837.75;5034274;28;20193;-85
2022/01/20 05:20:48;;;;;;;4.40;3.13;;;4.70;77.50;;;3.76;64.83;94841.97;5016273;28;20290;-85
2022/01/20 05:23:16;;;;;;;2.88;2.58;;;4.70;77.40;;;3.78;64.84;94835.66;5017431;28;20662;-86
2022/01/20 05:25:44;;;;;;;2.83;2.60;;;4.70;77.30;;;3.77;65.42;94835.81;5033708;28;20251;-86
2022/01/20 05:28:13;;;;;;;3.28;2.75;;;4.70;77.50;;;3.68;65.12;94827.16;5033688;28;20208;-85
2022/01/20 05:30:40;;;;;;;2.95;2.60;;;4.70;77.50;;;3.71;64.79;94826.88;5000398;28;20216;-84
2022/01/20 05:33:28;;;;;;;2.97;2.67;;;4.70;77.50;;;3.76;64.69;94829.00;5033148;28;20204;-85
2022/01/20 05:35:55;;;;;;;3.45;2.67;;;4.70;77.50;;;3.72;64.86;94833.69;5030078;28;20236;-85
2022/01/20 05:38:23;;;;;;;3.50;3.08;;;4.70;77.50;;;3.70;64.85;94830.44;4997232;28;20208;-84
2022/01/20 05:40:51;;;;;;;2.92;2.60;;;4.70;77.50;;;3.59;65.17;94821.13;4997179;28;20223;-84
2022/01/20 05:43:19;;;;;;;3.25;2.72;;;4.70;78.40;;;3.64;65.27;94831.84;5017474;28;20202;-86
2022/01/20 05:45:49;;;;;;;3.35;2.55;;;4.70;77.70;;;3.61;65.54;94818.38;5017080;28;20227;-85
2022/01/20 05:48:28;;;;;;;3.30;2.42;;;4.60;77.60;;;3.52;65.42;94813.09;5000384;28;20258;-85
2022/01/20 05:51:21;;;;;;;2.85;2.55;;;4.60;77.60;;;3.52;65.51;94813.09;5019790;28;20196;-84
2022/01/20 05:53:49;;;;;;;2.63;2.38;;;4.60;77.70;;;3.53;65.46;94808.75;5032827;28;20654;-85
2022/01/20 05:56:16;;;;;;;2.70;2.47;;;4.60;77.80;;;3.61;65.64;94810.59;5000097;28;20705;-85
2022/01/20 05:58:43;;;;;;;3.55;2.70;;;4.60;77.90;;;3.61;65.57;94808.00;5024578;28;20293;-85
2022/01/20 06:01:16;;;;;;;2.47;2.22;;;4.60;77.90;;;3.62;65.25;94804.44;4981700;28;20204;-85
2022/01/20 06:03:43;;;;;;;3.05;2.67;;;4.60;77.90;;;3.54;65.79;94805.19;5013061;28;20197;-85
2022/01/20 06:06:16;;;;;;;2.80;2.50;;;4.60;78.00;;;3.59;65.68;94797.78;4996458;28;20571;-85
2022/01/20 06:08:45;;;;;;;3.58;2.58;;;4.60;77.90;;;3.52;65.90;94792.38;5017240;28;20197;-85
2022/01/20 06:11:15;;;;;;;2.70;2.10;;;4.60;78.00;;;3.51;65.97;94780.34;5016420;28;20185;-86
2022/01/20 06:13:45;;;;;;;2.72;2.53;;;4.60;78.00;;;3.61;65.54;94795.03;5017205;28;20231;-84
2022/01/20 06:16:16;;;;;;;2.10;1.90;;;4.60;78.00;;;3.62;65.47;94801.84;5049196;28;20597;-85
2022/01/20 06:18:44;;;;;;;2.30;2.10;;;4.50;78.00;;;3.61;66.27;94800.22;5014452;28;20299;-86
2022/01/20 06:21:13;;;;;;;2.22;1.92;;;4.60;78.30;;;3.63;66.12;94809.47;5032957;28;20683;-85
2022/01/20 06:23:40;;;;;;;2.10;1.90;;;4.60;78.20;;;3.62;66.02;94801.84;5016340;28;20689;-85
2022/01/20 06:26:08;;;;;;;2.10;1.83;;;4.60;78.30;;;3.69;65.86;94800.28;5015987;28;20217;-86
2022/01/20 06:28:38;;;;;;;2.00;1.90;;;4.60;78.20;;;3.70;66.09;94788.94;5014158;28;20697;-85
2022/01/20 06:31:09;;;;;;;2.75;1.90;;;4.60;78.30;;;3.70;65.66;94801.91;5016690;28;20224;-85
2022/01/20 06:33:37;;;;;;;1.88;1.70;;;4.70;78.30;;;3.72;65.62;94794.75;5016417;28;20201;-85
2022/01/20 06:36:05;;;;;;;2.10;1.90;;;4.60;78.20;;;3.65;65.57;94791.16;5015096;28;20231;-85
2022/01/20 06:38:33;;;;;;;2.28;2.00;;;4.70;78.00;;;3.69;65.43;94795.09;5028860;28;20287;-85
2022/01/20 06:41:01;;;;;;;1.90;1.80;;;4.70;78.00;;;3.64;64.97;94782.56;5012536;28;20222;-85
2022/01/20 06:43:33;;;;;;;2.83;2.05;;;4.70;77.70;;;3.61;64.87;94785.44;5013179;28;20250;-85
2022/01/20 06:46:01;;;;;;;4.53;1.90;;;4.70;77.60;;;3.55;65.32;94782.66;5012316;28;20279;-85
2022/01/20 06:48:49;;;;;;;1.83;1.70;;;4.70;77.50;;;3.50;65.24;94764.97;5001708;28;22190;-85
2022/01/20 06:51:34;;;;;;;1.80;1.70;;;4.60;77.40;;;3.45;65.50;94764.59;5015436;28;20208;-85
2022/01/20 06:54:04;;;;;;;1.98;1.77;;;4.60;77.40;;;3.42;64.75;94767.50;4996584;28;20228;-84
2022/01/20 06:56:32;;;;;;;1.70;1.60;;;4.50;77.20;;;3.33;65.31;94761.44;5004537;28;20275;-86
2022/01/20 06:59:16;;;;;;;1.85;1.75;;;4.50;77.50;;;3.42;65.40;94783.03;5014473;28;20564;-85
2022/01/20 07:01:45;;;;;;;2.25;1.77;;;4.40;77.50;;;3.42;65.87;94783.88;4996538;28;20190;-85
2022/01/20 07:04:21;;;;;;;2.00;1.83;;;4.40;77.70;;;3.47;65.76;94784.22;4997359;28;20669;-85
2022/01/20 07:06:49;;;;;;;1.90;1.70;;;4.50;78.10;;;3.45;65.79;94777.56;4980883;28;20303;-85
2022/01/20 07:09:35;;;;;;;2.03;1.80;;;4.40;78.10;;;3.56;66.21;94803.25;5012730;28;20228;-85
2022/01/20 07:12:11;;;;;;;1.80;1.70;;;4.40;78.20;;;3.59;65.70;94808.16;4998591;28;20197;-85
2022/01/20 07:14:39;;;;;;;2.00;1.80;;;4.50;78.20;;;3.61;66.12;94798.41;5015293;28;20245;-86
2022/01/20 07:17:07;;;;;;;1.70;1.60;;;4.50;78.30;;;3.69;65.52;94800.28;5016850;28;20314;-85
2022/01/20 07:19:36;;;;;;;1.83;1.63;;;4.60;78.40;;;3.70;66.02;94804.50;5019867;28;20237;-86
2022/01/20 07:22:06;;;;;;;1.70;1.60;;;4.60;78.40;;;3.78;65.81;94806.31;5035432;28;20680;-86
2022/01/20 07:24:34;;;;;;;1.55;1.45;;;4.60;78.40;;;3.78;65.34;94807.13;5019090;28;20216;-86
2022/01/20 07:27:11;;;;;;;1.70;1.60;;;4.70;78.30;;;3.75;65.33;94814.41;5020513;28;20192;-86
2022/01/20 07:29:39;;;;;;;2.03;1.88;;;4.70;78.00;;;3.59;65.28;94795.19;5018836;28;20220;-85
2022/01/20 07:32:07;;;;;;;1.98;1.75;;;4.70;77.90;;;3.61;64.80;94800.22;5003445;28;20697;-85
2022/01/20 07:34:35;;;;;;;1.50;1.40;;;4.70;77.80;;;3.58;65.06;94814.28;4999410;28;20228;-86
2022/01/20 07:37:05;;;;;;;1.52;1.42;;;4.70;77.40;;;3.59;65.27;94817.69;5018246;28;20236;-87
2022/01/20 07:39:33;;;;;;;2.10;1.65;;;4.60;77.50;;;3.53;65.17;94821.72;5035902;28;20216;-88
2022/01/20 07:42:02;;;;;;;1.88;1.63;;;4.60;77.70;;;3.58;65.47;94821.28;5019247;28;20204;-86
2022/01/20 07:44:48;;;;;;;1.90;1.70;;;4.60;77.70;;;3.56;65.66;94824.00;5015456;28;20228;-87
2022/01/20 07:47:24;;;;;;;1.80;1.70;;;4.60;77.90;;;3.57;65.84;94809.28;5040220;28;20204;-87
2022/01/20 07:49:51;;;;;;;1.90;1.70;;;4.60;78.10;;;3.68;65.85;94811.59;5018002;28;20724;-86
2022/01/20 07:52:20;;;;;;;3.10;1.88;;;4.60;78.40;;;3.76;66.13;94821.22;5018364;28;20396;-86
2022/01/20 07:54:47;;;;;;;1.98;1.77;;;4.60;78.70;;;3.89;66.52;94819.03;5004548;28;20272;-85
2022/01/20 07:57:15;;;;;;;2.35;2.00;;;4.60;79.60;;;4.01;66.42;94820.41;5035355;28;20213;-87
2022/01/20 07:59:42;;;;;;;1.88;1.70;;;4.70;79.00;;;4.09;66.19;94837.81;4998246;28;20223;-86
2022/01/20 08:02:09;;;;;;;1.90;1.80;;;4.80;79.00;;;4.06;66.19;94826.94;5031537;28;20212;-87
2022/01/20 08:04:37;;;;;;;1.70;1.60;;;4.80;79.00;;;4.23;66.01;94833.81;5036314;28;20216;-85
2022/01/20 08:07:08;;;;;;;1.80;1.70;;;4.90;78.70;;;4.25;65.81;94833.69;5034912;28;20188;-85
2022/01/20 08:09:37;;;;;;;2.00;1.80;;;5.00;78.70;;;4.20;65.90;94833.31;5034259;28;20228;-86
2022/01/20 08:12:25;;;;;;;1.95;1.80;;;5.00;78.50;;;4.27;65.63;94842.97;5021037;28;20196;-86
2022/01/20 08:15:04;;;;;;;1.92;1.60;;;5.10;78.70;;;4.24;65.71;94830.28;5005367;28;20248;-86
2022/01/20 08:17:41;;;;;;;1.80;1.70;;;5.10;78.50;;;4.41;65.41;94851.94;5019601;28;20220;-85
2022/01/20 08:20:10;;;;;;;2.20;1.85;;;5.10;78.60;;;4.52;65.55;94843.06;5002282;28;20212;-87
2022/01/20 08:22:37;;;;;;;2.05;1.90;;;5.20;78.70;;;4.61;65.82;94841.31;5017689;28;20235;-86
2022/01/20 08:25:11;;;;;;;1.88;1.77;;;5.20;78.90;;;4.71;65.59;94833.38;5018438;28;20271;-86
2022/01/20 08:27:41;;;;;;;1.73;1.63;;;5.30;78.80;;;4.78;65.28;94839.59;5018443;28;20226;-87
2022/01/20 08:41:13;;;;;;;2.08;1.83;;;5.70;77.70;;;4.93;62.06;94857.97;5713244;24;20904;31
2022/01/20 08:43:40;;;;;;;1.95;1.80;;;5.70;77.30;;;5.02;62.32;94851.03;5148345;24;20279;-86
2022/01/20 08:46:19;;;;;;;1.70;1.60;;;5.80;77.40;;;5.08;62.85;94840.81;4731513;30;20589;-87
2022/01/20 08:48:48;;;;;;;1.88;1.60;;;5.80;77.50;;;5.25;61.76;94839.03;4704828;30;20252;-87
2022/01/20 08:51:35;;;;;;;2.33;1.50;;;5.90;77.10;;;5.25;59.90;94838.25;4720068;30;20216;-88
2022/01/20 08:54:17;;;;;;;1.75;1.60;;;5.90;76.30;;;5.27;60.83;94829.31;4704365;30;20248;-87
2022/01/20 08:56:51;;;;;;;2.53;1.92;;;6.00;76.40;;;5.33;60.93;94838.22;4715183;30;20236;-88
2022/01/20 08:59:19;;;;;;;1.60;1.50;;;6.00;76.50;;;5.28;61.81;94824.91;4717585;30;20693;-88
2022/01/20 09:01:47;;;;;;;1.75;1.65;;;6.00;76.60;;;5.29;61.63;94819.53;4718298;30;20251;-87
2022/01/20 09:04:16;;;;;;;1.88;1.77;;;6.10;76.30;;;5.18;61.47;94809.44;4717392;30;20270;-88
2022/01/20 09:07:03;;;;;;;2.20;1.88;;;6.10;76.20;;;5.17;61.59;94810.41;4705833;30;20566;-88
2022/01/20 09:09:41;;;;;;;2.10;1.90;;;6.10;76.30;;;5.20;61.25;94801.47;4689770;30;20244;-89
2022/01/20 09:17:32;;;;;;;3.08;2.05;;;6.10;76.00;;;5.31;59.41;94809.00;4720328;30;20232;-88
2022/01/20 09:20:00;;;;;;;2.10;1.90;;;6.10;75.50;;;5.32;58.84;94791.59;4703078;30;20232;-88
2022/01/20 09:22:30;;;;;;;2.72;2.10;;;6.10;75.30;;;5.32;57.30;94802.78;4689471;30;20247;-88
2022/01/20 09:24:58;;;;;;;2.13;1.90;;;6.10;74.70;;;5.43;58.05;94806.84;4708414;30;20327;-88
2022/01/20 09:27:25;;;;;;;2.10;1.90;;;6.10;75.00;;;5.49;58.25;94788.00;4705308;30;20212;-87
2022/01/20 09:29:53;;;;;;;2.00;1.80;;;6.20;74.90;;;5.59;58.71;94795.63;4703676;30;20286;-87
2022/01/20 09:32:25;;;;;;;2.20;1.90;;;6.20;75.00;;;5.69;57.94;94790.25;4700873;30;20235;-87
2022/01/20 09:34:56;;;;;;;2.30;1.90;;;6.30;74.80;;;5.74;57.81;94788.81;4686299;30;20332;-87
2022/01/20 09:37:24;;;;;;;2.42;1.98;;;6.30;74.80;;;5.93;56.77;94803.25;4700255;30;20236;-87
2022/01/20 09:39:52;;;;;;;1.90;1.70;;;6.40;74.70;;;6.04;57.11;94799.53;4699549;30;20228;-87
2022/01/20 09:42:37;;;;;;;2.05;1.85;;;6.50;74.90;;;6.22;56.63;94801.91;4702455;30;20314;-88
2022/01/20 09:45:05;;;;;;;2.28;1.90;;;6.60;74.50;;;6.33;56.17;94805.13;4703317;30;20313;-88
2022/01/20 09:47:37;;;;;;;2.15;1.75;;;6.70;74.20;;;6.41;56.15;94792.88;4700283;30;20305;-88
2022/01/20 09:50:33;;;;;;;1.70;1.60;;;6.80;74.00;;;6.54;55.35;94794.13;4700267;30;20233;-88
2022/01/20 09:53:21;;;;;;;1.60;1.50;;;6.90;73.70;;;6.58;54.34;94795.44;4717627;30;20203;-87
2022/01/20 09:56:13;;;;;;;1.52;1.40;;;7.10;73.40;;;6.61;55.36;94781.25;4717337;30;20208;-87
2022/01/20 09:58:43;;;;;;;1.77;1.52;;;7.10;73.50;;;6.70;54.57;94775.84;4702937;30;20260;-88
2022/01/20 10:01:11;;;;;;;1.50;1.40;;;7.20;73.10;;;6.75;54.58;94784.94;4717284;30;20278;-87
2022/01/20 10:03:47;;;;;;;1.70;1.60;;;7.30;72.80;;;6.77;54.33;94770.72;4717005;30;20220;-87
2022/01/20 10:06:17;;;;;;;1.80;1.70;;;7.30;72.50;;;6.77;53.97;94760.31;4717065;30;20209;-87
2022/01/20 10:09:02;;;;;;;1.65;1.55;;;7.40;72.20;;;6.71;52.45;94785.28;4691702;30;20573;-87
2022/01/20 10:12:06;;;;;;;2.00;1.80;;;7.40;71.40;;;6.67;52.94;94759.72;4711119;30;20650;-87
2022/01/20 10:15:00;;;;;;;1.70;1.60;;;7.40;71.50;;;6.66;52.17;94761.50;4705578;30;20327;-87
2022/01/20 10:17:46;;;;;;;1.80;1.60;;;7.40;70.90;;;6.66;52.20;94763.31;4704873;30;20428;-88
2022/01/20 10:20:20;;;;;;;1.75;1.40;;;7.30;70.90;;;6.68;53.05;94787.41;4703533;30;20714;-86
2022/01/20 10:22:57;;;;;;;1.60;1.50;;;7.40;71.50;;;6.62;51.24;94757.63;4705181;30;20211;-87
2022/01/20 10:25:48;;;;;;;1.20;1.20;;;7.40;70.20;;;6.53;50.93;94746.44;4714177;30;20299;-88
2022/01/20 10:28:29;;;;;;;1.55;1.45;;;7.40;69.70;;;6.42;50.80;94746.81;4705915;30;20214;-87
2022/01/20 10:30:58;;;;;;;1.52;1.42;;;7.20;69.40;;;6.39;51.82;94752.38;4703285;30;20268;-87
2022/01/20 10:33:26;;;;;;;1.30;1.20;;;7.30;70.00;;;6.39;52.49;94749.75;4702790;30;20294;-88
2022/01/20 10:35:53;;;;;;;2.35;1.50;;;7.20;70.20;;;6.45;52.34;94733.44;4702898;30;20292;-88
2022/01/20 10:38:31;;;;;;;1.40;1.30;;;7.30;70.20;;;6.44;52.09;94739.63;4716653;30;20243;-86
2022/01/20 10:41:04;;;;;;;1.50;1.40;;;7.20;70.20;;;6.45;50.57;94749.06;4716076;30;20211;-87
2022/01/20 10:43:39;;;;;;;1.38;1.20;;;7.20;69.40;;;6.39;51.23;94734.13;4699352;30;20208;-87
2022/01/20 10:46:47;;;;;;;1.27;1.23;;;7.20;69.60;;;6.37;51.50;94730.88;4708542;30;20601;-87
2022/01/20 10:49:21;;;;;;;1.52;1.20;;;7.20;69.60;;;6.31;51.34;94744.56;4699136;30;20323;-87
2022/01/20 10:52:06;;;;;;;1.63;1.40;;;7.20;69.40;;;6.20;50.67;94728.34;4703768;30;20212;-87
2022/01/20 10:54:43;;;;;;;1.48;1.33;;;7.10;69.10;;;6.22;51.93;94730.78;4716995;30;20236;-87
2022/01/20 10:57:16;;;;;;;1.35;1.33;;;7.10;69.30;;;6.11;51.51;94720.75;4715788;30;20248;-87
2022/01/20 10:59:58;;;;;;;1.40;1.30;;;7.10;69.30;;;6.11;51.50;94739.78;4703055;30;20243;-87
2022/01/20 11:02:52;;;;;;;0.95;0.95;;;7.10;69.00;;;6.04;51.58;94733.59;4693026;30;20775;-88
2022/01/20 11:05:21;;;;;;;1.60;1.20;;;7.00;68.90;;;6.03;50.93;94704.16;4716656;30;20771;-88
2022/01/20 11:07:51;;;;;;;1.73;1.50;;;6.90;68.90;;;6.06;51.14;94735.06;4702935;30;20266;-86
2022/01/20 11:10:19;;;;;;;2.63;1.35;;;7.00;69.10;;;6.04;50.82;94716.22;4716924;30;20233;-86
2022/01/20 11:13:12;;;;;;;2.15;1.30;;;6.90;69.10;;;6.10;49.98;94719.91;4715950;30;20215;-87
2022/01/20 11:15:44;;;;;;;1.55;1.30;;;6.90;68.60;;;6.07;50.92;94713.25;4719834;30;20303;-87
2022/01/20 11:18:13;;;;;;;2.97;1.30;;;6.90;68.80;;;6.02;49.91;94714.75;4705436;30;20247;-88
2022/01/20 11:20:52;;;;;;;1.35;1.13;;;6.90;68.30;;;6.06;50.69;94719.44;4716653;30;20238;-87
2022/01/20 11:23:42;;;;;;;1.70;1.30;;;6.90;68.50;;;6.05;50.25;94722.22;4690415;30;20208;-88
2022/01/20 11:26:34;;;;;;;1.58;1.10;;;6.90;68.60;;;6.01;50.45;94728.75;4688723;30;20220;-88
2022/01/20 11:29:49;;;;;;;1.30;1.20;;;6.90;68.70;;;5.97;50.29;94699.59;4719945;30;20269;-87
2022/01/20 11:32:35;;;;;;;2.95;1.50;;;6.90;68.50;;;5.96;50.50;94744.00;4706679;30;20208;-87
2022/01/20 11:35:13;;;;;;;2.25;1.30;;;6.90;68.60;;;5.90;50.31;94724.69;4719550;30;20330;-87
2022/01/20 11:37:53;;;;;;;2.05;1.50;;;6.80;68.50;;;5.91;50.82;94723.72;4704916;30;20243;-86
2022/01/20 11:40:24;;;;;;;3.72;1.42;;;6.80;68.50;;;5.83;50.35;94695.91;4705358;30;20250;-87
2022/01/20 11:43:03;;;;;;;2.42;1.42;;;6.80;68.40;;;5.92;51.38;94697.50;4705111;30;20211;-87
2022/01/20 11:45:41;;;;;;;1.73;1.40;;;6.80;68.80;;;5.87;51.34;94686.78;4704982;30;20235;-87
2022/01/20 11:48:19;;;;;;;3.33;1.65;;;6.70;68.80;;;5.92;51.47;94696.72;4702888;30;20299;-87
2022/01/20 11:51:03;;;;;;;2.55;1.67;;;6.80;68.90;;;5.88;50.96;94671.97;4719253;30;20220;-87
2022/01/20 11:53:30;;;;;;;1.30;1.20;;;6.80;68.80;;;5.96;50.71;94678.94;4718962;30;20555;-87
2022/01/20 11:55:58;;;;;;;2.70;1.95;;;6.70;68.70;;;5.99;51.60;94699.47;4704257;30;20208;-88
2022/01/20 11:58:27;;;;;;;1.85;1.50;;;6.70;69.00;;;5.93;50.14;94686.13;4704412;30;20235;-88
2022/01/20 12:01:09;;;;;;;1.60;1.50;;;6.80;68.50;;;5.97;51.21;94685.75;4704535;30;20208;-87
2022/01/20 12:03:50;;;;;;;3.08;1.95;;;6.80;68.70;;;5.96;51.11;94689.34;4686698;30;20587;-87
2022/01/20 12:06:25;;;;;;;1.90;1.70;;;6.80;68.80;;;5.86;51.05;94716.41;4688314;30;20576;-87
2022/01/20 12:09:01;;;;;;;2.45;1.50;;;6.70;68.50;;;5.76;50.30;94693.16;4701774;30;20236;-87